Decoded Metar for LZTT (POPRAD in SLOVAKIA) (IATA:TAT) | Meteo·Mobile Aviation Weather
aviador You're here:

LZTT Decoded Metar

POPRAD in SLOVAKIA
Report Time2019-09-21 09:00:00
UTC Time2019-09-21 09:06:23
Flight Rules vfr VFR
Wind160° at 04 kt
W.Decomp.*RWY 09: 1.6 kt HW 3.7 kt RCW
RWY 07: 0.3 kt HW 4.0 kt RCW
Visibility9999 m
Phenomena:N/A
Clouds:Few 050 Hf
Expected CloudBase > 3,600 ft AGL from Temp-Dew spread
CeilingNone
Temp12°C (ISA +2)
Dew Point03°C (54% RH)
AAT9.1°C
QNH1026 hPa
Density Alt2,185 ft
Elevation2,320 ft
Report Wrong Elevation
Raw Report
METAR LZTT 210900Z 16004KT 110V220 9999 FEW050 12/03 Q1026 NOSIG=

Extra information for LZTT:More info

Metar Taf Metar & Taf Last 4 Metars F.Rules Stats Wind Profile Meteogram Temp Stats Airport Information Weather charts Add Link Nearby VenuesMetar ALERT Operation Metar Decoded Social comments